createdAt,value
2022-12-23T00:01:58.119Z,94191.81
2022-12-23T00:04:31.053Z,94184.44
2022-12-23T00:06:58.016Z,94200.50
2022-12-23T00:09:25.064Z,94182.81
2022-12-23T00:11:54.789Z,94192.63
2022-12-23T00:14:27.685Z,94184.69
2022-12-23T00:16:57.514Z,94193.19
2022-12-23T00:19:30.346Z,94187.94
2022-12-23T00:21:59.549Z,94185.59
2022-12-23T00:24:32.371Z,94192.66
2022-12-23T00:26:59.407Z,94178.63
2022-12-23T00:29:32.281Z,94171.44
2022-12-23T00:32:05.198Z,94177.84
2022-12-23T00:34:32.234Z,94175.19
2022-12-23T00:36:59.354Z,94161.34
2022-12-23T00:39:27.593Z,94160.72
2022-12-23T00:41:54.577Z,94171.38
2022-12-23T00:44:22.318Z,94168.50
2022-12-23T00:46:55.111Z,94169.25
2022-12-23T00:49:24.801Z,94174.94
2022-12-23T00:52:16.695Z,94153.69
2022-12-23T00:54:46.451Z,94166.88
2022-12-23T00:57:18.429Z,94169.81
2022-12-23T00:59:45.862Z,94168.72
2022-12-23T01:02:18.809Z,94165.78
2022-12-23T01:04:45.828Z,94171.34
2022-12-23T01:07:12.873Z,94178.03
2022-12-23T01:09:40.329Z,94174.25
2022-12-23T01:15:50.069Z,94176.88
2022-12-23T01:18:19.209Z,94179.97
2022-12-23T01:20:51.539Z,94180.25
2022-12-23T01:23:21.237Z,94173.69
2022-12-23T01:25:58.502Z,94180.72
2022-12-23T01:28:25.928Z,94182.06
2022-12-23T01:30:55.553Z,94180.72
2022-12-23T01:33:24.511Z,94183.50
2022-12-23T01:35:59.339Z,94182.47
2022-12-23T01:38:32.049Z,94190.88
2022-12-23T01:41:01.713Z,94197.16
2022-12-23T01:43:48.648Z,94191.53
2022-12-23T01:46:18.441Z,94190.38
2022-12-23T01:48:49.621Z,94193.13
2022-12-23T01:51:25.957Z,94193.84
2022-12-23T01:54:12.612Z,94195.03
2022-12-23T01:56:45.434Z,94188.22
2022-12-23T01:59:13.553Z,94192.44
2022-12-23T02:01:40.677Z,94184.31
2022-12-23T02:04:16.081Z,94190.50
2022-12-23T02:06:46.629Z,94184.22
2022-12-23T02:09:22.965Z,94181.22
2022-12-23T02:12:19.399Z,94178.88
2022-12-23T02:15:26.769Z,94173.69
2022-12-23T02:18:24.046Z,94178.03
2022-12-23T02:21:11.264Z,94166.56
2022-12-23T02:24:02.978Z,94172.25
2022-12-23T02:27:10.291Z,94182.50
2022-12-23T02:30:17.595Z,94181.31
2022-12-23T02:33:03.558Z,94179.69
2022-12-23T02:36:18.341Z,94166.16
2022-12-23T02:39:13.365Z,94175.06
2022-12-23T02:42:11.880Z,94172.81
2022-12-23T02:45:23.453Z,94178.91
2022-12-23T02:47:56.684Z,94170.88
2022-12-23T02:50:32.390Z,94177.69
2022-12-23T02:53:08.717Z,94183.44
2022-12-23T02:55:42.073Z,94163.66
2022-12-23T02:58:14.981Z,94181.31
2022-12-23T03:00:42.798Z,94184.59
2022-12-23T03:03:10.203Z,94179.53
2022-12-23T03:05:39.978Z,94160.84
2022-12-23T03:08:34.779Z,94177.84
2022-12-23T03:11:15.026Z,94188.13
2022-12-23T03:14:07.977Z,94189.72
2022-12-23T03:16:57.528Z,94184.69
2022-12-23T03:19:38.246Z,94176.47
2022-12-23T03:22:35.125Z,94165.38
2022-12-23T03:25:24.689Z,94166.66
2022-12-23T03:28:29.735Z,94163.09
2022-12-23T03:30:57.522Z,94159.09
2022-12-23T03:33:28.554Z,94154.94
2022-12-23T03:36:02.405Z,94159.03
2022-12-23T03:38:35.729Z,94147.91
2022-12-23T03:41:06.756Z,94146.03
2022-12-23T03:43:42.303Z,94165.16
2022-12-23T03:46:23.397Z,94156.19
2022-12-23T03:49:03.681Z,94152.75
2022-12-23T03:51:53.029Z,94151.84
2022-12-23T03:54:29.545Z,94150.13
2022-12-23T03:57:04.977Z,94149.25
2022-12-23T03:59:36.542Z,94148.72
2022-12-23T04:02:38.895Z,94145.97
2022-12-23T04:05:26.596Z,94160.28
2022-12-23T04:08:07.914Z,94150.84
2022-12-23T04:10:40.731Z,94160.34
2022-12-23T04:13:27.617Z,94157.06
2022-12-23T04:16:07.631Z,94155.44
2022-12-23T04:18:57.975Z,94148.81
2022-12-23T04:21:26.173Z,94158.16
2022-12-23T04:23:53.604Z,94159.22
2022-12-23T04:26:26.571Z,94150.34
2022-12-23T04:28:53.660Z,94158.56
2022-12-23T04:31:26.535Z,94154.88
2022-12-23T04:33:54.208Z,94151.09
2022-12-23T04:36:21.179Z,94147.91
2022-12-23T04:38:49.218Z,94151.84
2022-12-23T04:41:16.152Z,94147.00
2022-12-23T04:43:45.408Z,94155.31
2022-12-23T04:46:17.615Z,94164.56
2022-12-23T04:48:44.661Z,94158.81
2022-12-23T04:51:36.790Z,94161.00
2022-12-23T04:54:09.749Z,94177.75
2022-12-23T04:56:37.184Z,94170.31
2022-12-23T04:59:06.786Z,94162.59
2022-12-23T05:01:36.040Z,94167.41
2022-12-23T05:04:03.278Z,94165.84
2022-12-23T05:06:30.762Z,94162.78
2022-12-23T05:08:58.360Z,94160.47
2022-12-23T05:11:25.845Z,94150.44
2022-12-23T05:13:52.776Z,94161.22
2022-12-23T05:16:19.844Z,94163.53
2022-12-23T05:18:49.695Z,94167.31
2022-12-23T05:21:17.818Z,94161.50
2022-12-23T05:23:50.639Z,94160.97
2022-12-23T05:26:59.703Z,94169.75
2022-12-23T05:29:27.886Z,94165.97
2022-12-23T05:31:57.400Z,94166.22
2022-12-23T05:34:24.478Z,94164.16
2022-12-23T05:36:51.409Z,94155.34
2022-12-23T05:39:18.157Z,94155.63
2022-12-23T05:41:45.656Z,94162.66
2022-12-23T05:44:15.357Z,94163.16
2022-12-23T05:47:06.780Z,94152.56
2022-12-23T05:49:33.668Z,94167.34
2022-12-23T05:52:00.718Z,94144.63
2022-12-23T05:54:27.682Z,94150.78
2022-12-23T05:56:58.961Z,94136.22
2022-12-23T05:59:30.707Z,94147.31
2022-12-23T06:01:59.540Z,94152.72
2022-12-23T06:04:26.799Z,94147.59
2022-12-23T06:06:58.690Z,94149.47
2022-12-23T06:09:28.490Z,94143.78
2022-12-23T06:11:55.653Z,94145.97
2022-12-23T06:14:28.866Z,94146.88
2022-12-23T06:16:56.597Z,94152.94
2022-12-23T06:19:23.630Z,94151.09
2022-12-23T06:21:53.367Z,94148.56
2022-12-23T06:24:22.902Z,94159.47
2022-12-23T06:26:56.553Z,94164.66
2022-12-23T06:29:24.043Z,94148.69
2022-12-23T06:31:50.848Z,94149.03
2022-12-23T06:34:23.808Z,94152.22
2022-12-23T06:36:51.153Z,94147.84
2022-12-23T06:39:20.733Z,94139.66
2022-12-23T06:41:47.903Z,94135.53
2022-12-23T06:44:16.913Z,94130.53
2022-12-23T06:46:46.541Z,94137.66
2022-12-23T06:49:14.153Z,94153.25
2022-12-23T06:51:42.095Z,94159.56
2022-12-23T06:54:12.937Z,94165.19
2022-12-23T06:56:46.012Z,94173.72
2022-12-23T06:59:12.871Z,94178.75
2022-12-23T07:05:36.453Z,94183.22
2022-12-23T07:08:04.008Z,94188.13
2022-12-23T07:10:31.268Z,94179.22
2022-12-23T07:12:58.021Z,94168.41
2022-12-23T07:15:24.832Z,94170.28
2022-12-23T07:17:51.574Z,94168.00
2022-12-23T07:20:18.265Z,94178.44
2022-12-23T07:22:44.975Z,94172.34
2022-12-23T07:25:11.718Z,94174.56
2022-12-23T07:27:38.856Z,94191.09
2022-12-23T07:30:07.600Z,94185.50
2022-12-23T07:32:35.078Z,94194.16
2022-12-23T07:35:01.825Z,94199.16
2022-12-23T07:37:28.763Z,94210.88
2022-12-23T07:39:55.893Z,94214.53
2022-12-23T07:42:44.029Z,94214.38
2022-12-23T07:45:09.733Z,94205.19
2022-12-23T07:47:36.927Z,94207.63
2022-12-23T07:50:04.764Z,94190.72
2022-12-23T07:52:31.611Z,94182.31
2022-12-23T07:54:58.323Z,94193.50
2022-12-23T07:57:25.532Z,94190.50
2022-12-23T07:59:54.624Z,94187.91
2022-12-23T08:02:24.361Z,94196.19
2022-12-23T08:04:51.377Z,94187.28
2022-12-23T08:07:19.469Z,94195.41
2022-12-23T08:09:47.153Z,94194.50
2022-12-23T08:12:14.172Z,94192.91
2022-12-23T08:14:41.391Z,94191.69
2022-12-23T08:17:10.551Z,94193.31
2022-12-23T08:19:37.711Z,94190.25
2022-12-23T08:22:08.426Z,94182.44
2022-12-23T08:24:35.389Z,94189.16
2022-12-23T08:27:05.309Z,94187.13
2022-12-23T08:29:36.224Z,94190.03
2022-12-23T08:32:09.074Z,94206.44
2022-12-23T08:34:36.557Z,94198.84
2022-12-23T08:37:03.652Z,94198.75
2022-12-23T08:39:31.092Z,94197.03
2022-12-23T08:42:03.129Z,94203.75
2022-12-23T08:44:32.733Z,94213.91
2022-12-23T08:47:00.190Z,94216.56
2022-12-23T08:49:27.403Z,94222.19
2022-12-23T08:52:00.504Z,94216.66
2022-12-23T08:54:28.385Z,94216.03
2022-12-23T08:56:55.817Z,94227.63
2022-12-23T08:59:25.476Z,94222.28
2022-12-23T09:01:52.699Z,94233.97
2022-12-23T09:04:19.900Z,94231.47
2022-12-23T09:06:47.102Z,94237.47
2022-12-23T09:09:16.126Z,94236.13
2022-12-23T09:11:45.962Z,94240.25
2022-12-23T09:14:13.035Z,94237.69
2022-12-23T09:16:40.642Z,94253.13
2022-12-23T09:19:07.941Z,94248.00
2022-12-23T09:21:37.110Z,94239.50
2022-12-23T09:24:05.611Z,94244.50
2022-12-23T09:26:35.372Z,94251.25
2022-12-23T09:29:02.731Z,94249.91
2022-12-23T09:31:36.224Z,94251.75
2022-12-23T09:34:04.471Z,94256.41
2022-12-23T09:36:37.532Z,94256.47
2022-12-23T09:39:04.507Z,94268.09
2022-12-23T09:42:15.844Z,94263.09
2022-12-23T09:45:21.793Z,94275.41
2022-12-23T09:47:48.774Z,94260.72
2022-12-23T09:50:28.378Z,94260.38
2022-12-23T09:53:06.077Z,94251.66
2022-12-23T09:56:04.563Z,94253.38
2022-12-23T09:59:18.833Z,94260.59
2022-12-23T10:04:54.665Z,94249.50
2022-12-23T10:07:37.478Z,94256.84
2022-12-23T10:10:27.040Z,94244.91
2022-12-23T10:12:54.594Z,94246.69
2022-12-23T10:18:56.406Z,94250.13
2022-12-23T10:21:46.915Z,94245.88
2022-12-23T10:24:21.714Z,94241.50
2022-12-23T10:27:03.750Z,94243.09
2022-12-23T10:29:31.609Z,94238.63
2022-12-23T10:32:17.613Z,94228.66
2022-12-23T10:34:59.509Z,94236.53
2022-12-23T10:38:04.721Z,94249.25
2022-12-23T10:41:09.963Z,94236.94
2022-12-23T10:44:17.484Z,94253.72
2022-12-23T10:47:31.647Z,94250.50
2022-12-23T10:50:11.140Z,94237.13
2022-12-23T10:52:44.398Z,94226.59
2022-12-23T10:55:31.373Z,94231.03
2022-12-23T10:58:20.623Z,94231.56
2022-12-23T11:01:26.117Z,94249.47
2022-12-23T11:04:15.387Z,94249.22
2022-12-23T11:07:34.381Z,94245.50
2022-12-23T11:10:13.264Z,94237.63
2022-12-23T11:12:48.076Z,94238.50
2022-12-23T11:15:50.883Z,94235.34
2022-12-23T11:18:23.727Z,94238.19
2022-12-23T11:21:13.545Z,94241.03
2022-12-23T11:23:40.577Z,94248.31
2022-12-23T11:26:12.329Z,94241.97
2022-12-23T11:28:46.654Z,94237.72
2022-12-23T11:31:15.764Z,94245.44
2022-12-23T11:34:02.452Z,94251.56
2022-12-23T11:36:32.131Z,94250.78
2022-12-23T11:42:28.794Z,94252.13
2022-12-23T11:44:58.264Z,94259.69
2022-12-23T11:47:43.682Z,94251.50
2022-12-23T11:50:34.668Z,94254.16
2022-12-23T11:53:21.457Z,94244.72
2022-12-23T11:56:01.569Z,94247.63
2022-12-23T11:58:29.749Z,94249.44
2022-12-23T12:01:07.677Z,94244.31
2022-12-23T12:03:38.338Z,94243.91
2022-12-23T12:06:06.065Z,94249.44
2022-12-23T12:08:39.075Z,94243.38
2022-12-23T12:11:15.500Z,94242.19
2022-12-23T12:13:43.643Z,94239.50
2022-12-23T12:16:49.705Z,94234.09
2022-12-23T12:19:36.612Z,94226.81
2022-12-23T12:22:20.547Z,94222.88
2022-12-23T12:24:53.791Z,94230.75
2022-12-23T12:27:34.366Z,94234.53
2022-12-23T12:30:08.409Z,94229.81
2022-12-23T12:32:43.058Z,94231.47
2022-12-23T12:36:05.744Z,94236.44
2022-12-23T12:38:33.240Z,94232.25
2022-12-23T12:41:08.792Z,94219.56
2022-12-23T12:43:43.370Z,94227.47
2022-12-23T12:46:43.383Z,94232.34
2022-12-23T12:49:20.822Z,94225.19
2022-12-23T12:52:20.393Z,94224.81
2022-12-23T12:55:09.786Z,94242.59
2022-12-23T12:57:37.166Z,94233.72
2022-12-23T13:00:11.529Z,94233.44
2022-12-23T13:03:16.097Z,94234.38
2022-12-23T13:06:00.131Z,94216.97
2022-12-23T13:09:02.902Z,94223.53
2022-12-23T13:11:50.880Z,94214.88
2022-12-23T13:14:35.653Z,94206.38
2022-12-23T13:17:28.848Z,94207.66
2022-12-23T13:20:43.735Z,94208.22
2022-12-23T13:23:42.917Z,94214.91
2022-12-23T13:29:36.742Z,94223.00
2022-12-23T13:32:30.314Z,94219.00
2022-12-23T13:35:32.257Z,94220.22
2022-12-23T13:38:21.597Z,94217.81
2022-12-23T13:41:34.880Z,94210.38
2022-12-23T13:44:10.083Z,94216.44
2022-12-23T13:47:03.436Z,94215.25
2022-12-23T13:53:07.270Z,94232.84
2022-12-23T13:55:56.847Z,94229.50
2022-12-23T13:58:28.221Z,94216.69
2022-12-23T14:01:18.832Z,94223.31
2022-12-23T14:04:27.960Z,94219.88
2022-12-23T14:06:59.154Z,94217.88
2022-12-23T14:09:37.407Z,94206.97
2022-12-23T14:15:56.219Z,94201.47
2022-12-23T14:18:47.410Z,94207.31
2022-12-23T14:21:55.336Z,94197.34
2022-12-23T14:25:19.208Z,94205.97
2022-12-23T14:27:54.313Z,94227.72
2022-12-23T14:30:34.746Z,94223.00
2022-12-23T14:36:33.963Z,94224.03
2022-12-23T14:39:13.735Z,94224.59
2022-12-23T14:41:52.160Z,94210.84
2022-12-23T14:44:20.906Z,94209.94
2022-12-23T14:46:57.361Z,94209.28
2022-12-23T14:49:40.136Z,94207.09
2022-12-23T14:52:50.731Z,94211.66
2022-12-23T14:55:30.978Z,94226.81
2022-12-23T14:58:17.881Z,94220.31
2022-12-23T15:03:54.528Z,94222.69
2022-12-23T15:07:09.047Z,94219.09
2022-12-23T15:09:49.395Z,94223.94
2022-12-23T15:12:27.276Z,94215.59
2022-12-23T15:15:05.994Z,94205.97
2022-12-23T15:17:35.420Z,94216.28
2022-12-23T15:20:16.451Z,94220.63
2022-12-23T15:22:44.794Z,94220.78
2022-12-23T15:25:28.145Z,94221.50
2022-12-23T15:28:01.434Z,94224.59
2022-12-23T15:30:34.052Z,94233.72
2022-12-23T15:33:06.412Z,94233.22
2022-12-23T15:35:44.409Z,94238.06
2022-12-23T15:38:21.615Z,94244.72
2022-12-23T15:41:05.921Z,94238.75
2022-12-23T15:43:40.287Z,94233.06
2022-12-23T15:46:23.451Z,94243.59
2022-12-23T15:48:54.118Z,94240.28
2022-12-23T15:52:05.948Z,94231.81
2022-12-23T15:54:25.379Z,94234.97
2022-12-23T15:56:52.775Z,94244.75
2022-12-23T15:59:23.021Z,94222.31
2022-12-23T16:01:51.301Z,94231.72
2022-12-23T16:04:33.578Z,94228.22
2022-12-23T16:07:01.641Z,94234.72
2022-12-23T16:09:35.084Z,94236.19
2022-12-23T16:12:19.782Z,94236.09
2022-12-23T16:15:39.730Z,94255.59
2022-12-23T16:18:26.509Z,94240.22
2022-12-23T16:20:57.413Z,94249.66
2022-12-23T16:23:24.176Z,94244.19
2022-12-23T16:25:52.452Z,94237.63
2022-12-23T16:28:23.039Z,94235.94
2022-12-23T16:30:52.395Z,94235.25
2022-12-23T16:33:34.682Z,94224.03
2022-12-23T16:36:26.576Z,94239.66
2022-12-23T16:39:25.343Z,94240.25
2022-12-23T16:41:53.124Z,94240.59
2022-12-23T16:44:25.341Z,94234.84
2022-12-23T16:46:53.070Z,94235.41
2022-12-23T16:49:21.578Z,94232.66
2022-12-23T16:51:50.450Z,94228.34
2022-12-23T16:54:20.480Z,94236.00
2022-12-23T16:56:49.995Z,94246.06
2022-12-23T16:59:17.330Z,94243.81
2022-12-23T17:01:51.059Z,94246.69
2022-12-23T17:04:23.888Z,94234.38
2022-12-23T17:06:50.889Z,94209.97
2022-12-23T17:09:17.988Z,94217.69
2022-12-23T17:11:48.866Z,94227.84
2022-12-23T17:14:23.545Z,94226.78
2022-12-23T17:16:51.464Z,94224.22
2022-12-23T17:19:27.139Z,94237.44
2022-12-23T17:21:58.450Z,94249.81
2022-12-23T17:28:18.230Z,94251.38
2022-12-23T17:31:14.868Z,94258.72
2022-12-23T17:33:45.683Z,94246.69
2022-12-23T17:36:12.866Z,94241.50
2022-12-23T17:38:40.723Z,94254.16
2022-12-23T17:41:20.394Z,94261.53
2022-12-23T17:43:47.227Z,94264.19
2022-12-23T17:46:15.086Z,94271.09
2022-12-23T17:48:41.996Z,94256.28
2022-12-23T17:51:14.064Z,94252.13
2022-12-23T17:53:44.730Z,94264.75
2022-12-23T17:56:17.685Z,94260.66
2022-12-23T17:58:44.798Z,94284.03
2022-12-23T18:01:31.886Z,94281.47
2022-12-23T18:04:07.552Z,94312.03
2022-12-23T18:06:43.350Z,94334.09
2022-12-23T18:09:15.569Z,94337.47
2022-12-23T18:11:45.192Z,94343.56
2022-12-23T18:14:21.460Z,94344.91
2022-12-23T18:16:51.200Z,94341.03
2022-12-23T18:19:23.446Z,94346.44
2022-12-23T18:21:50.913Z,94352.06
2022-12-23T18:24:23.717Z,94344.44
2022-12-23T18:26:50.725Z,94337.66
2022-12-23T18:29:17.757Z,94355.84
2022-12-23T18:31:51.475Z,94358.25
2022-12-23T18:34:19.256Z,94370.41
2022-12-23T18:36:46.389Z,94361.81
2022-12-23T18:43:44.390Z,94371.41
2022-12-23T18:46:16.080Z,94364.34
2022-12-23T18:48:43.225Z,94360.09
2022-12-23T18:51:13.685Z,94360.66
2022-12-23T18:53:48.498Z,94374.56
2022-12-23T18:56:17.646Z,94368.13
2022-12-23T18:58:47.462Z,94363.66
2022-12-23T19:01:16.953Z,94376.69
2022-12-23T19:03:49.396Z,94372.94
2022-12-23T19:06:18.264Z,94375.97
2022-12-23T19:08:50.028Z,94360.13
2022-12-23T19:11:22.804Z,94347.59
2022-12-23T19:13:49.852Z,94336.44
2022-12-23T19:16:22.752Z,94335.28
2022-12-23T19:18:50.228Z,94318.00
2022-12-23T19:21:17.791Z,94327.34
2022-12-23T19:23:45.672Z,94321.16
2022-12-23T19:26:13.486Z,94325.19
2022-12-23T19:28:40.698Z,94307.81
2022-12-23T19:31:11.940Z,94312.78
2022-12-23T19:33:40.467Z,94314.22
2022-12-23T19:36:18.228Z,94324.34
2022-12-23T19:38:51.170Z,94327.72
2022-12-23T19:41:18.692Z,94332.56
2022-12-23T19:43:51.669Z,94343.78
2022-12-23T19:46:18.815Z,94324.41
2022-12-23T19:48:51.018Z,94313.06
2022-12-23T19:51:18.070Z,94308.53
2022-12-23T19:53:48.863Z,94300.94
2022-12-23T19:56:16.175Z,94285.22
2022-12-23T19:58:43.862Z,94283.97
2022-12-23T20:01:16.201Z,94303.97
2022-12-23T20:03:43.560Z,94307.16
2022-12-23T20:06:15.701Z,94288.53
2022-12-23T20:08:42.777Z,94286.81
2022-12-23T20:11:13.982Z,94285.63
2022-12-23T20:13:45.943Z,94284.91
2022-12-23T20:16:15.594Z,94291.41
2022-12-23T20:18:42.596Z,94291.19
2022-12-23T20:21:09.510Z,94296.00
2022-12-23T20:23:37.692Z,94309.63
2022-12-23T20:26:05.406Z,94302.13
2022-12-23T20:28:33.339Z,94303.44
2022-12-23T20:31:48.887Z,94302.38
2022-12-23T20:34:16.698Z,94284.28
2022-12-23T20:36:44.067Z,94290.72
2022-12-23T20:39:11.203Z,94290.09
2022-12-23T20:41:40.970Z,94308.25
2022-12-23T20:46:58.393Z,94283.06
2022-12-23T20:49:25.602Z,94297.31
2022-12-23T20:51:55.056Z,94299.47
2022-12-23T20:54:33.613Z,94305.28
2022-12-23T20:57:01.896Z,94286.66
2022-12-23T20:59:34.782Z,94286.09
2022-12-23T21:02:02.352Z,94304.09
2022-12-23T21:04:30.269Z,94300.84
2022-12-23T21:06:57.179Z,94294.38
2022-12-23T21:09:24.637Z,94295.78
2022-12-23T21:11:57.528Z,94296.75
2022-12-23T21:14:25.060Z,94305.25
2022-12-23T21:16:52.001Z,94302.53
2022-12-23T21:19:25.142Z,94306.06
2022-12-23T21:21:52.909Z,94312.28
2022-12-23T21:24:23.099Z,94294.47
2022-12-23T21:30:02.920Z,94294.81
2022-12-23T21:32:35.714Z,94304.34
2022-12-23T21:35:04.468Z,94317.50
2022-12-23T21:37:44.448Z,94313.47
2022-12-23T21:40:13.266Z,94308.88
2022-12-23T21:42:42.858Z,94320.31
2022-12-23T21:45:18.698Z,94319.97
2022-12-23T21:47:45.495Z,94335.47
2022-12-23T21:50:16.021Z,94324.03
2022-12-23T21:52:45.017Z,94316.63
2022-12-23T21:55:17.793Z,94331.22
2022-12-23T21:57:47.373Z,94338.34
2022-12-23T22:00:15.556Z,94322.06
2022-12-23T22:02:43.589Z,94302.69
2022-12-23T22:05:10.645Z,94309.44
2022-12-23T22:07:37.400Z,94308.06
2022-12-23T22:10:10.591Z,94295.47
2022-12-23T22:12:38.806Z,94289.31
2022-12-23T22:15:11.464Z,94302.75
2022-12-23T22:17:39.314Z,94296.31
2022-12-23T22:20:07.681Z,94294.09
2022-12-23T22:22:34.576Z,94296.03
2022-12-23T22:25:07.933Z,94304.84
2022-12-23T22:27:35.178Z,94294.25
2022-12-23T22:30:02.517Z,94289.19
2022-12-23T22:32:40.596Z,94295.88
2022-12-23T22:35:15.195Z,94284.66
2022-12-23T22:37:48.070Z,94286.28
2022-12-23T22:43:19.351Z,94288.53
2022-12-23T22:45:58.630Z,94294.50
2022-12-23T22:48:32.334Z,94288.72
2022-12-23T22:51:07.364Z,94292.50
2022-12-23T22:54:18.413Z,94302.25
2022-12-23T22:56:46.184Z,94301.66
2022-12-23T22:59:25.076Z,94324.34
2022-12-23T23:01:52.540Z,94332.59
2022-12-23T23:04:20.041Z,94323.75
2022-12-23T23:09:54.543Z,94299.53
2022-12-23T23:12:22.030Z,94309.56
2022-12-23T23:14:50.163Z,94317.69
2022-12-23T23:17:27.586Z,94338.63
2022-12-23T23:20:00.134Z,94338.72
2022-12-23T23:22:28.135Z,94334.22
2022-12-23T23:25:00.482Z,94348.94
2022-12-23T23:27:27.314Z,94335.09
2022-12-23T23:29:54.400Z,94350.47
2022-12-23T23:32:21.253Z,94364.00
2022-12-23T23:34:48.333Z,94364.53
2022-12-23T23:37:15.355Z,94379.13
2022-12-23T23:39:42.203Z,94384.28
2022-12-23T23:42:13.228Z,94376.84
2022-12-23T23:44:41.707Z,94382.84
2022-12-23T23:47:11.239Z,94374.50
2022-12-23T23:49:40.428Z,94376.25
2022-12-23T23:52:08.025Z,94382.44
2022-12-23T23:54:40.880Z,94388.66
2022-12-23T23:57:13.936Z,94393.00
2022-12-23T23:59:43.550Z,94392.22
